Weather at Pullman Moscow Regional Airport

Public forecast

Using degrees Fahrenheit for public forecast. Weather courtesy of forecast.io.

Current aviation weather report (METAR) for Pullman Moscow Regional Airport

Retrieved 2020/10/21 00:53 UTC (1 hour ago):

KPUW 210053Z AUTO 27006KT 10SM OVC034 11/03 A3002 RMK AO2 SLP172 T01060033

Aviation forecast (TAF) for Pullman Moscow Regional Airport

Retrieved 2020-10-21 00:22 UTC (2 hours ago):

TAF KPUW 202320Z 2100/2124 27007KT P6SM SCT040 BKN120 FM210200 26004KT P6SM FEW040 SCT120 BKN250 FM211500 24011KT P6SM VCSH SCT030 BKN070 FM211800 25016G22KT P6SM BKN050 OVC100